VIDPOMAD

Guest
Details From VIDP - Indira Gandhi Intl
To OMAD - Bateen
Flight Number -
Tags Generated
Created
Modified
Stats Distance 1,240 nm / 2,296 km
Max Altitude 0 ft / 0 m
Waypoints 4
Social Downloads 1
Likes 0
Share VATSIM

Download

Looking for another format? Having issues loading an existing format? Contact us
Advertisement - Login to hide

Notes

Generated

Route

VIDP MJ AUH99 OMAD

ID Type Via Altitude Latitude Longitude Leg Dist Tot Dist Heading (true) Name
O VIDP APT - 0 ft / 0 m 28.57049˚ 77.08804˚ - 0 nm - -
MJ NDB - 0 ft / 0 m 27.33097˚ 68.14105˚ 480 nm 480 nm 263° / 259° MOENJODARO NDB
AUH99 FIX - 0 ft / 0 m 24.47341˚ 54.59480˚ 751 nm 1231 nm 260° / 254° -
O OMAD APT - 0 ft / 0 m 24.43743˚ 54.44569˚ 8 nm 1240 nm 255° / 255° -

Altitude Profile

Advertisement - Login to hide

Weather


0- 5 10 15 20 25 30 35+ Temperature / ° C

Clouds and Precipitation
Forecast for 2018-05-26 12:00 UTC. Updated 3 hours ago

Ground ~20,000 ft ~40,000 ft Winds

VIDP

Details ICAO VIDP (DEL)
Name INDIRA GANDHI INTL
Region India
Timezone Asia/Kolkata (UTC+5.5)
Stats Elevation 777 ft / 237 m (AMSL)
Location 28.566496° 77.103090°
Runways 2
Magnetic Variation 1.243° E

METAR

VIDP 261330Z 31003KT 3500 DU FEW100 43/03 Q1000 NOSIG

Decode

TAF

TAF VIDP 261100Z 2612/2718 27008KT 3500 HZ DU FEW100 BECMG 2700/2702 2000 HZ FEW040 SCT100 BECMG 2704/2706 3500 HZ DU SCT040 BKN100 BECMG 2709/2711 29008G18KT 4500 HZ DU BECMG 2715/2717 3500 HZ DU SCT100

Decode

Departure Runways

ID Width Length Bearing (true) Bearing (mag) Surface Threshold Offset Overrun Length
09 150 ft / 46 m 9,270 ft / 2,826 m 91.50° 90.26° Asphalt 0 ft / 0 m 195 ft / 59 m
10 150 ft / 46 m 12,488 ft / 3,807 m 104.67° 103.43° Asphalt 0 ft / 0 m 880 ft / 268 m
27 150 ft / 46 m 9,270 ft / 2,826 m 271.52° 270.28° Asphalt 499 ft / 152 m 0 ft / 0 m
28 150 ft / 46 m 12,488 ft / 3,807 m 284.69° 283.45° Asphalt 0 ft / 0 m 470 ft / 143 m

OMAD

Details ICAO OMAD (AZI)
Name BATEEN
Region United Arab Emirates
Timezone Asia/Dubai (UTC+4.0)
Stats Elevation 16 ft / 5 m (AMSL)
Location 24.428597° 54.458181°
Runways 1
Magnetic Variation 2.021° E

METAR

OMAD 261400Z 34009KT CAVOK 34/20 Q1004 NOSIG

Decode

TAF

TAF OMAD 261100Z 2612/2718 33012KT 8000 NSC PROB30 TEMPO 2612/2615 34018G28KT 3000 BLDU FEW050TCU BECMG 2617/2619 04006KT BECMG 2700/2702 16012KT BECMG 2709/2711 34012KT

Decode

Destination Runways

ID Width Length Bearing (true) Bearing (mag) Surface Threshold Offset Overrun Length
13 151 ft / 46 m 10,509 ft / 3,203 m 127.84° 125.82° Asphalt 1,673 ft / 510 m 600 ft / 183 m
31 151 ft / 46 m 10,509 ft / 3,203 m 307.85° 305.83° Asphalt 2,644 ft / 806 m 869 ft / 265 m

Popular Alternatives